createdAt,value
2019-05-18T00:00:56.509Z,99.90
2019-05-18T00:03:25.808Z,99.90
2019-05-18T00:05:55.187Z,99.90
2019-05-18T00:08:24.485Z,99.90
2019-05-18T00:10:53.810Z,99.90
2019-05-18T00:13:23.116Z,99.90
2019-05-18T00:15:52.426Z,99.90
2019-05-18T00:18:21.760Z,99.90
2019-05-18T00:20:51.324Z,99.90
2019-05-18T00:23:20.639Z,99.90
2019-05-18T00:25:49.989Z,99.90
2019-05-18T00:28:19.290Z,99.90
2019-05-18T00:30:48.587Z,99.90
2019-05-18T00:33:17.900Z,99.90
2019-05-18T00:35:47.278Z,99.90
2019-05-18T00:38:16.585Z,99.90
2019-05-18T00:40:45.887Z,99.90
2019-05-18T00:43:15.330Z,99.90
2019-05-18T00:45:44.611Z,99.90
2019-05-18T00:48:13.927Z,99.90
2019-05-18T00:50:43.878Z,99.90
2019-05-18T00:53:17.789Z,99.90
2019-05-18T00:55:47.092Z,99.90
2019-05-18T00:58:16.399Z,99.90
2019-05-18T01:00:45.699Z,99.90
2019-05-18T01:03:15.266Z,99.90
2019-05-18T01:05:44.571Z,99.90
2019-05-18T01:08:14.153Z,99.90
2019-05-18T01:10:44.890Z,99.90
2019-05-18T01:13:14.206Z,99.90
2019-05-18T01:15:43.523Z,99.90
2019-05-18T01:18:12.842Z,99.90
2019-05-18T01:20:42.218Z,99.90
2019-05-18T01:23:11.884Z,99.90
2019-05-18T01:25:41.184Z,99.90
2019-05-18T01:28:10.496Z,99.90
2019-05-18T01:30:39.866Z,99.90
2019-05-18T01:33:09.182Z,99.90
2019-05-18T01:35:38.478Z,99.90
2019-05-18T01:38:07.797Z,99.90
2019-05-18T01:40:37.096Z,99.90
2019-05-18T01:43:06.386Z,99.90
2019-05-18T01:45:35.691Z,99.90
2019-05-18T01:48:13.457Z,99.90
2019-05-18T01:50:36.008Z,99.90
2019-05-18T01:53:05.386Z,99.90
2019-05-18T01:55:34.697Z,99.90
2019-05-18T01:58:04.023Z,99.90
2019-05-18T02:00:33.542Z,99.90
2019-05-18T02:03:02.862Z,99.90
2019-05-18T02:05:32.164Z,99.90
2019-05-18T02:08:01.455Z,99.90
2019-05-18T02:10:30.752Z,99.90
2019-05-18T02:13:00.072Z,99.90
2019-05-18T02:15:29.661Z,99.90
2019-05-18T02:17:58.995Z,99.90
2019-05-18T02:20:28.308Z,99.90
2019-05-18T02:22:57.604Z,99.90
2019-05-18T02:25:26.912Z,99.90
2019-05-18T02:27:56.588Z,99.90
2019-05-18T02:30:26.199Z,99.90
2019-05-18T02:32:55.496Z,99.90
2019-05-18T02:35:25.079Z,99.90
2019-05-18T02:37:56.021Z,99.90
2019-05-18T02:40:25.368Z,99.90
2019-05-18T02:42:55.008Z,99.90
2019-05-18T02:45:24.325Z,99.90
2019-05-18T02:47:53.610Z,99.90
2019-05-18T02:50:22.916Z,99.90
2019-05-18T02:52:52.215Z,99.90
2019-05-18T02:55:21.522Z,99.90
2019-05-18T02:57:51.130Z,99.90
2019-05-18T03:00:20.786Z,99.90
2019-05-18T03:02:50.094Z,99.90
2019-05-18T03:05:19.409Z,99.90
2019-05-18T03:07:48.722Z,99.90
2019-05-18T03:10:18.662Z,99.90
2019-05-18T03:12:48.373Z,99.90
2019-05-18T03:15:17.775Z,99.90
2019-05-18T03:17:47.078Z,99.90
2019-05-18T03:20:16.578Z,99.90
2019-05-18T03:22:45.836Z,99.90
2019-05-18T03:25:16.457Z,99.90
2019-05-18T03:27:45.759Z,99.90
2019-05-18T03:30:15.245Z,99.90
2019-05-18T03:32:44.548Z,99.90
2019-05-18T03:35:13.919Z,99.90
2019-05-18T03:37:43.229Z,99.90
2019-05-18T03:40:13.383Z,99.90
2019-05-18T03:42:42.687Z,99.90
2019-05-18T03:45:12.459Z,99.90
2019-05-18T03:47:41.780Z,99.90
2019-05-18T03:50:11.686Z,99.90
2019-05-18T03:52:41.277Z,99.90
2019-05-18T03:55:10.768Z,99.90
2019-05-18T03:57:40.050Z,99.90
2019-05-18T04:00:10.082Z,99.90
2019-05-18T04:02:39.395Z,99.90
2019-05-18T04:05:08.755Z,99.90
2019-05-18T04:07:38.045Z,99.90
2019-05-18T04:10:08.754Z,99.90
2019-05-18T04:12:38.065Z,99.90
2019-05-18T04:15:08.172Z,99.90
2019-05-18T04:17:37.774Z,99.90
2019-05-18T04:20:08.075Z,99.90
2019-05-18T04:22:37.698Z,99.90
2019-05-18T04:25:07.210Z,99.90
2019-05-18T04:27:36.558Z,99.90
2019-05-18T04:30:08.294Z,99.90
2019-05-18T04:32:37.846Z,99.90
2019-05-18T04:35:08.851Z,99.90
2019-05-18T04:37:38.206Z,99.90
2019-05-18T04:40:09.633Z,99.90
2019-05-18T04:42:38.945Z,99.90
2019-05-18T04:45:09.100Z,99.90
2019-05-18T04:47:38.702Z,99.90
2019-05-18T04:50:09.643Z,99.90
2019-05-18T04:52:38.928Z,99.90
2019-05-18T04:55:09.141Z,99.90
2019-05-18T04:57:38.459Z,99.90
2019-05-18T05:00:09.160Z,99.90
2019-05-18T05:02:38.479Z,99.90
2019-05-18T05:05:08.785Z,99.90
2019-05-18T05:07:39.011Z,99.90
2019-05-18T05:10:09.108Z,99.90
2019-05-18T05:12:38.432Z,99.90
2019-05-18T05:15:08.428Z,99.90
2019-05-18T05:17:37.734Z,99.90
2019-05-18T05:20:19.376Z,99.90
2019-05-18T05:22:39.084Z,99.90
2019-05-18T05:25:08.823Z,99.90
2019-05-18T05:27:38.126Z,99.90
2019-05-18T05:30:09.423Z,99.90
2019-05-18T05:32:38.742Z,99.90
2019-05-18T05:35:08.782Z,99.90
2019-05-18T05:37:38.111Z,99.90
2019-05-18T05:40:09.080Z,99.90
2019-05-18T05:42:38.387Z,99.90
2019-05-18T05:45:09.800Z,99.90
2019-05-18T05:47:39.122Z,99.90
2019-05-18T05:50:09.770Z,99.90
2019-05-18T05:52:39.434Z,99.90
2019-05-18T05:55:09.770Z,99.90
2019-05-18T05:57:39.080Z,99.90
2019-05-18T06:00:10.807Z,99.90
2019-05-18T06:02:40.209Z,99.90
2019-05-18T06:05:10.413Z,99.90
2019-05-18T06:07:39.726Z,99.90
2019-05-18T06:10:10.560Z,99.90
2019-05-18T06:12:39.859Z,99.90
2019-05-18T06:15:13.659Z,99.90
2019-05-18T06:17:43.268Z,99.90
2019-05-18T06:20:13.634Z,99.90
2019-05-18T06:22:42.950Z,99.90
2019-05-18T06:25:13.702Z,99.90
2019-05-18T06:27:43.081Z,99.90
2019-05-18T06:30:12.562Z,99.90
2019-05-18T06:32:41.908Z,99.90
2019-05-18T06:35:12.450Z,99.90
2019-05-18T06:37:42.075Z,99.90
2019-05-18T06:40:11.553Z,99.90
2019-05-18T06:42:40.868Z,99.90
2019-05-18T06:45:11.508Z,99.90
2019-05-18T06:47:40.849Z,99.90
2019-05-18T06:50:13.081Z,99.90
2019-05-18T06:52:42.584Z,99.90
2019-05-18T06:55:12.046Z,99.90
2019-05-18T06:57:42.511Z,99.90
2019-05-18T07:00:15.421Z,99.90
2019-05-18T07:02:44.724Z,99.90
2019-05-18T07:05:14.183Z,99.90
2019-05-18T07:07:43.520Z,99.90
2019-05-18T07:10:13.320Z,99.90
2019-05-18T07:12:42.938Z,99.90
2019-05-18T07:15:13.602Z,99.90
2019-05-18T07:17:42.903Z,99.90
2019-05-18T07:20:13.621Z,99.90
2019-05-18T07:22:43.188Z,99.90
2019-05-18T07:25:13.575Z,99.90
2019-05-18T07:27:42.950Z,99.90
2019-05-18T07:30:14.898Z,99.90
2019-05-18T07:32:44.208Z,99.90
2019-05-18T07:35:15.219Z,99.90
2019-05-18T07:37:44.529Z,99.90
2019-05-18T07:40:14.152Z,99.90
2019-05-18T07:42:43.483Z,99.90
2019-05-18T07:45:13.512Z,99.90
2019-05-18T07:47:42.818Z,99.90
2019-05-18T07:50:13.228Z,99.90
2019-05-18T07:52:42.800Z,99.90
2019-05-18T07:55:12.193Z,99.90
2019-05-18T07:57:41.811Z,99.90
2019-05-18T08:00:11.638Z,99.90
2019-05-18T08:02:40.953Z,99.90
2019-05-18T08:05:10.590Z,99.90
2019-05-18T08:07:39.903Z,99.90
2019-05-18T08:10:09.928Z,99.90
2019-05-18T08:12:39.228Z,99.90
2019-05-18T08:15:10.258Z,99.90
2019-05-18T08:34:49.673Z,99.90
2019-05-18T08:37:19.024Z,99.90
2019-05-18T08:39:48.347Z,99.90
2019-05-18T08:42:17.669Z,99.90
2019-05-18T08:44:47.008Z,99.90
2019-05-18T08:53:21.416Z,99.90
2019-05-18T08:55:51.001Z,99.90
2019-05-18T08:58:20.540Z,99.90
2019-05-18T09:00:49.837Z,99.90
2019-05-18T09:03:19.155Z,99.90
2019-05-18T09:05:48.459Z,99.90
2019-05-18T09:08:17.794Z,99.90
2019-05-18T09:10:47.097Z,99.90
2019-05-18T09:13:16.429Z,99.90
2019-05-18T09:15:46.323Z,99.90
2019-05-18T09:18:15.618Z,99.90
2019-05-18T09:20:45.163Z,99.90
2019-05-18T09:23:14.720Z,99.90
2019-05-18T09:25:44.342Z,99.90
2019-05-18T09:28:13.648Z,99.90
2019-05-18T09:30:42.959Z,99.90
2019-05-18T09:33:13.054Z,99.90
2019-05-18T09:35:42.358Z,99.90
2019-05-18T09:38:11.700Z,99.90
2019-05-18T09:40:41.029Z,99.90
2019-05-18T09:43:10.661Z,99.90
2019-05-18T09:45:39.981Z,99.90
2019-05-18T09:48:12.132Z,99.90
2019-05-18T09:50:41.441Z,99.90
2019-05-18T09:53:11.046Z,99.90
2019-05-18T09:55:40.644Z,99.90
2019-05-18T09:58:12.403Z,99.90
2019-05-18T10:00:41.719Z,99.90
2019-05-18T10:03:11.057Z,99.90
2019-05-18T10:05:49.566Z,99.90
2019-05-18T10:08:18.901Z,99.90
2019-05-18T10:10:48.223Z,99.90
2019-05-18T10:13:17.545Z,99.90
2019-05-18T10:15:46.876Z,99.90
2019-05-18T10:18:16.183Z,99.90
2019-05-18T10:20:45.489Z,99.90
2019-05-18T10:23:14.807Z,99.90
2019-05-18T10:25:44.112Z,99.90
2019-05-18T10:28:13.449Z,99.90
2019-05-18T10:30:42.778Z,99.90
2019-05-18T10:33:12.111Z,99.90
2019-05-18T10:35:41.683Z,99.90
2019-05-18T10:38:11.061Z,99.90
2019-05-18T10:40:40.402Z,99.90
2019-05-18T10:43:09.730Z,99.90
2019-05-18T10:45:39.051Z,99.90
2019-05-18T10:48:08.667Z,99.90
2019-05-18T10:50:37.991Z,99.90
2019-05-18T10:53:07.297Z,99.90
2019-05-18T10:55:36.617Z,99.90
2019-05-18T10:58:06.242Z,99.90
2019-05-18T11:00:35.936Z,99.90
2019-05-18T11:03:05.388Z,99.90
2019-05-18T11:05:34.780Z,99.90
2019-05-18T11:08:04.090Z,99.90
2019-05-18T11:10:33.673Z,99.90
2019-05-18T11:13:03.283Z,99.90
2019-05-18T11:15:32.613Z,99.90
2019-05-18T11:18:01.927Z,99.90
2019-05-18T11:20:31.272Z,99.90
2019-05-18T11:23:00.613Z,99.90
2019-05-18T11:25:29.951Z,99.90
2019-05-18T11:27:59.259Z,99.90
2019-05-18T11:30:28.576Z,99.90
2019-05-18T11:32:57.973Z,99.90
2019-05-18T11:35:27.514Z,99.90
2019-05-18T11:37:56.848Z,99.90
2019-05-18T11:40:26.585Z,99.90
2019-05-18T11:42:55.931Z,99.90
2019-05-18T11:45:25.861Z,99.90
2019-05-18T11:47:55.192Z,99.90
2019-05-18T11:50:25.144Z,99.90
2019-05-18T11:52:54.616Z,99.90
2019-05-18T11:55:25.564Z,99.90
2019-05-18T11:57:54.870Z,99.90
2019-05-18T12:00:26.545Z,99.90
2019-05-18T12:02:55.859Z,99.90
2019-05-18T12:05:25.157Z,99.90
2019-05-18T12:07:54.643Z,99.90
2019-05-18T12:10:23.957Z,99.90
2019-05-18T12:12:53.356Z,99.90
2019-05-18T12:15:23.297Z,99.90
2019-05-18T12:17:52.767Z,99.90
2019-05-18T12:20:24.053Z,99.90
2019-05-18T12:22:53.371Z,99.90
2019-05-18T12:25:22.742Z,99.90
2019-05-18T12:27:52.151Z,99.90
2019-05-18T12:30:23.897Z,99.90
2019-05-18T12:32:53.479Z,99.90
2019-05-18T12:35:22.846Z,99.90
2019-05-18T12:37:52.173Z,99.90
2019-05-18T12:40:22.806Z,99.90
2019-05-18T12:42:52.136Z,99.90
2019-05-18T12:45:21.957Z,99.90
2019-05-18T12:47:51.270Z,99.90
2019-05-18T12:50:21.905Z,99.90
2019-05-18T12:52:51.312Z,99.90
2019-05-18T12:55:21.137Z,99.90
2019-05-18T12:57:50.491Z,99.90
2019-05-18T13:00:21.913Z,99.90
2019-05-18T13:02:51.235Z,97.10
2019-05-18T13:05:22.766Z,97.00
2019-05-18T13:07:52.088Z,98.00
2019-05-18T13:10:21.904Z,96.70
2019-05-18T13:12:51.218Z,95.40
2019-05-18T13:15:21.439Z,95.60
2019-05-18T13:17:50.765Z,94.90
2019-05-18T13:20:20.795Z,93.80
2019-05-18T13:22:50.135Z,93.30
2019-05-18T13:25:20.156Z,93.80
2019-05-18T13:27:49.489Z,93.40
2019-05-18T13:30:20.163Z,91.90
2019-05-18T13:32:49.790Z,91.90
2019-05-18T13:35:20.157Z,91.90
2019-05-18T13:37:49.484Z,92.30
2019-05-18T13:40:20.461Z,91.60
2019-05-18T13:42:49.803Z,92.80
2019-05-18T13:45:19.840Z,92.40
2019-05-18T13:47:52.125Z,92.20
2019-05-18T13:50:21.610Z,91.80
2019-05-18T13:52:50.953Z,91.10
2019-05-18T13:55:20.340Z,90.80
2019-05-18T13:57:49.972Z,91.40
2019-05-18T14:00:20.965Z,92.70
2019-05-18T14:02:50.339Z,93.10
2019-05-18T14:05:19.988Z,91.60
2019-05-18T14:07:50.014Z,91.60
2019-05-18T14:10:19.557Z,92.00
2019-05-18T14:12:48.940Z,90.50
2019-05-18T14:15:18.434Z,89.30
2019-05-18T14:17:47.723Z,87.80
2019-05-18T14:20:18.757Z,84.10
2019-05-18T14:22:48.056Z,81.70
2019-05-18T14:25:19.822Z,76.60
2019-05-18T14:27:48.809Z,75.80
2019-05-18T14:30:19.244Z,77.30
2019-05-18T14:32:48.547Z,75.20
2019-05-18T14:35:18.355Z,79.00
2019-05-18T14:37:47.668Z,73.70
2019-05-18T14:40:17.229Z,76.00
2019-05-18T14:42:46.516Z,77.30
2019-05-18T14:45:16.891Z,76.60
2019-05-18T14:47:46.204Z,77.60
2019-05-18T14:50:16.189Z,79.30
2019-05-18T14:52:45.462Z,76.90
2019-05-18T14:55:15.235Z,78.40
2019-05-18T14:57:44.535Z,76.20
2019-05-18T15:00:15.997Z,74.10
2019-05-18T15:02:45.306Z,72.80
2019-05-18T15:05:15.341Z,72.70
2019-05-18T15:07:44.666Z,70.70
2019-05-18T15:10:14.589Z,71.70
2019-05-18T15:12:43.970Z,70.20
2019-05-18T15:15:15.149Z,69.40
2019-05-18T15:17:44.464Z,66.80
2019-05-18T15:20:14.998Z,67.20
2019-05-18T15:22:45.508Z,69.60
2019-05-18T15:25:15.978Z,69.30
2019-05-18T15:27:45.296Z,67.80
2019-05-18T15:30:15.130Z,70.70
2019-05-18T15:32:44.736Z,69.20
2019-05-18T15:35:15.668Z,71.30
2019-05-18T15:37:45.298Z,71.30
2019-05-18T15:40:15.851Z,73.10
2019-05-18T15:42:45.429Z,73.90
2019-05-18T15:45:15.694Z,72.20
2019-05-18T15:47:45.024Z,73.10
2019-05-18T15:50:15.574Z,71.40
2019-05-18T15:52:44.896Z,69.90
2019-05-18T15:55:14.726Z,69.10
2019-05-18T15:57:44.062Z,72.20
2019-05-18T16:00:14.298Z,70.00
2019-05-18T16:02:43.621Z,70.30
2019-05-18T16:05:14.862Z,70.90
2019-05-18T16:07:44.201Z,69.20
2019-05-18T16:10:16.104Z,70.50
2019-05-18T16:12:45.405Z,70.20
2019-05-18T16:15:16.366Z,71.80
2019-05-18T16:17:45.669Z,70.20
2019-05-18T16:20:15.428Z,69.70
2019-05-18T16:22:44.859Z,71.40
2019-05-18T16:25:15.951Z,70.40
2019-05-18T16:27:45.287Z,68.50
2019-05-18T16:30:16.091Z,69.80
2019-05-18T16:32:45.432Z,70.00
2019-05-18T16:35:14.969Z,71.20
2019-05-18T16:37:44.271Z,74.50
2019-05-18T16:40:14.453Z,68.70
2019-05-18T16:42:46.509Z,66.90
2019-05-18T16:45:17.656Z,65.60
2019-05-18T16:47:47.288Z,67.20
2019-05-18T16:50:18.472Z,64.10
2019-05-18T16:52:47.807Z,62.40
2019-05-18T16:55:17.537Z,63.80
2019-05-18T16:57:46.839Z,64.30
2019-05-18T17:00:17.558Z,65.50
2019-05-18T17:02:46.874Z,66.70
2019-05-18T17:05:17.103Z,67.50
2019-05-18T17:07:46.412Z,65.80
2019-05-18T17:10:16.243Z,67.30
2019-05-18T17:12:45.849Z,78.60
2019-05-18T17:15:16.568Z,79.90
2019-05-18T17:17:46.169Z,76.10
2019-05-18T17:20:15.885Z,81.10
2019-05-18T17:22:57.147Z,90.50
2019-05-18T17:25:26.755Z,99.20
2019-05-18T17:27:56.065Z,99.90
2019-05-18T17:30:25.662Z,98.10
2019-05-18T17:32:55.270Z,99.90
2019-05-18T17:35:24.586Z,99.90
2019-05-18T17:37:54.195Z,99.90
2019-05-18T17:40:23.489Z,99.90
2019-05-18T17:42:52.794Z,99.90
2019-05-18T17:45:22.238Z,99.90
2019-05-18T17:47:51.644Z,99.90
2019-05-18T17:50:20.931Z,99.90
2019-05-18T17:52:50.233Z,99.90
2019-05-18T17:55:20.214Z,99.90
2019-05-18T17:57:49.804Z,99.90
2019-05-18T18:00:19.702Z,99.90
2019-05-18T18:02:49.007Z,99.90
2019-05-18T18:06:00.841Z,99.90
2019-05-18T18:08:30.141Z,99.90
2019-05-18T18:10:59.432Z,99.90
2019-05-18T18:13:28.828Z,99.90
2019-05-18T18:15:58.419Z,99.90
2019-05-18T18:18:27.999Z,99.90
2019-05-18T18:20:57.290Z,99.90
2019-05-18T18:23:26.937Z,99.90
2019-05-18T18:25:56.241Z,99.90
2019-05-18T18:28:25.562Z,99.90
2019-05-18T18:30:54.849Z,99.90
2019-05-18T18:33:24.159Z,99.90
2019-05-18T18:35:53.458Z,99.90
2019-05-18T18:38:22.776Z,99.90
2019-05-18T18:40:52.347Z,99.90
2019-05-18T18:43:21.661Z,99.90
2019-05-18T18:45:50.954Z,99.90
2019-05-18T18:48:20.264Z,99.90
2019-05-18T18:51:22.946Z,99.90
2019-05-18T18:53:58.582Z,99.90
2019-05-18T18:56:27.894Z,99.90
2019-05-18T18:58:57.492Z,99.90
2019-05-18T19:01:26.801Z,99.90
2019-05-18T19:03:56.132Z,99.90
2019-05-18T19:06:25.542Z,99.90
2019-05-18T19:08:54.803Z,99.90
2019-05-18T19:11:24.148Z,99.90
2019-05-18T19:13:53.453Z,99.90
2019-05-18T19:16:23.527Z,99.90
2019-05-18T19:18:52.810Z,99.90
2019-05-18T19:21:22.122Z,99.90
2019-05-18T19:23:51.435Z,99.90
2019-05-18T19:26:20.776Z,99.90
2019-05-18T19:28:50.090Z,99.90
2019-05-18T19:31:19.434Z,99.90
2019-05-18T19:33:48.762Z,99.90
2019-05-18T19:36:18.326Z,99.90
2019-05-18T19:38:47.624Z,99.90
2019-05-18T19:41:17.227Z,99.90
2019-05-18T19:43:46.852Z,99.90
2019-05-18T19:46:16.159Z,99.90
2019-05-18T19:48:45.747Z,99.90
2019-05-18T19:51:16.170Z,99.90
2019-05-18T19:53:45.622Z,99.90
2019-05-18T19:56:15.193Z,99.90
2019-05-18T19:58:44.475Z,99.90
2019-05-18T20:01:14.113Z,99.90
2019-05-18T20:03:43.416Z,99.90
2019-05-18T20:06:12.760Z,99.90
2019-05-18T20:08:42.075Z,99.90
2019-05-18T20:11:11.492Z,99.90
2019-05-18T20:13:41.119Z,99.90
2019-05-18T20:16:10.810Z,99.90
2019-05-18T20:18:40.210Z,99.90
2019-05-18T20:21:09.522Z,99.90
2019-05-18T20:23:39.108Z,99.90
2019-05-18T20:26:08.465Z,99.90
2019-05-18T20:28:38.027Z,99.90
2019-05-18T20:31:07.342Z,99.90
2019-05-18T20:33:36.668Z,99.90
2019-05-18T20:36:06.031Z,99.90
2019-05-18T20:38:35.342Z,99.90
2019-05-18T20:41:04.665Z,99.90
2019-05-18T20:43:33.969Z,99.90
2019-05-18T20:46:03.555Z,99.90
2019-05-18T20:48:32.866Z,99.90
2019-05-18T20:51:02.210Z,99.90
2019-05-18T20:53:31.857Z,99.90
2019-05-18T20:56:01.274Z,99.90
2019-05-18T20:58:39.622Z,99.90
2019-05-18T21:01:01.629Z,99.90
2019-05-18T21:03:31.195Z,99.90
2019-05-18T21:06:00.802Z,99.90
2019-05-18T21:08:32.860Z,99.90
2019-05-18T21:11:02.602Z,99.90
2019-05-18T21:13:31.954Z,99.90
2019-05-18T21:16:01.307Z,99.90
2019-05-18T21:18:30.635Z,99.90
2019-05-18T21:20:59.988Z,99.90
2019-05-18T21:23:36.826Z,99.90
2019-05-18T21:26:08.957Z,99.90
2019-05-18T21:28:53.420Z,99.90
2019-05-18T21:31:09.571Z,99.90
2019-05-18T21:33:38.918Z,99.90
2019-05-18T21:36:08.227Z,99.90
2019-05-18T21:38:37.553Z,99.90
2019-05-18T21:41:06.873Z,99.90
2019-05-18T21:43:36.223Z,99.90
2019-05-18T21:46:05.642Z,99.90
2019-05-18T21:48:34.991Z,99.90
2019-05-18T21:51:04.583Z,99.90
2019-05-18T21:53:33.909Z,99.90
2019-05-18T21:56:03.241Z,99.90
2019-05-18T21:58:32.599Z,99.90
2019-05-18T22:01:01.909Z,99.90
2019-05-18T22:03:31.501Z,99.90
2019-05-18T22:06:01.102Z,99.90
2019-05-18T22:08:30.442Z,99.90
2019-05-18T22:11:00.006Z,99.90
2019-05-18T22:13:29.358Z,99.90
2019-05-18T22:15:58.691Z,99.90
2019-05-18T22:18:28.319Z,99.90
2019-05-18T22:20:57.658Z,99.90
2019-05-18T22:23:26.985Z,99.90
2019-05-18T22:25:57.296Z,99.90
2019-05-18T22:28:27.285Z,99.90
2019-05-18T22:30:56.620Z,99.90
2019-05-18T22:33:25.969Z,99.90
2019-05-18T22:35:55.288Z,99.90
2019-05-18T22:38:24.598Z,99.90
2019-05-18T22:40:53.928Z,99.90
2019-05-18T22:43:23.577Z,99.90
2019-05-18T22:45:52.887Z,99.90
2019-05-18T22:48:22.197Z,99.90
2019-05-18T22:50:51.784Z,99.90
2019-05-18T22:53:21.134Z,99.90
2019-05-18T22:55:50.462Z,99.90
2019-05-18T22:58:20.069Z,99.90
2019-05-18T23:00:49.404Z,99.90
2019-05-18T23:03:18.779Z,99.90
2019-05-18T23:05:48.045Z,99.90
2019-05-18T23:08:17.419Z,99.90
2019-05-18T23:10:47.097Z,99.90
2019-05-18T23:13:16.404Z,99.90
2019-05-18T23:15:45.736Z,99.90
2019-05-18T23:18:15.036Z,99.90
2019-05-18T23:20:44.349Z,99.90
2019-05-18T23:23:13.908Z,99.90
2019-05-18T23:25:43.230Z,99.90
2019-05-18T23:28:12.814Z,99.90
2019-05-18T23:30:42.123Z,99.90
2019-05-18T23:33:11.721Z,99.90
2019-05-18T23:35:41.028Z,99.90
2019-05-18T23:38:10.337Z,99.90
2019-05-18T23:40:40.327Z,99.90
2019-05-18T23:43:09.676Z,99.90
2019-05-18T23:45:39.025Z,99.90
2019-05-18T23:48:08.337Z,99.90
2019-05-18T23:50:37.639Z,99.90
2019-05-18T23:53:07.004Z,99.90
2019-05-18T23:55:36.334Z,99.90
2019-05-18T23:58:06.201Z,99.90
